createdAt,value
2023-03-16T00:01:08.726Z,1.08
2023-03-16T00:03:36.774Z,0.85
2023-03-16T00:06:03.981Z,1.10
2023-03-16T00:08:30.886Z,1.30
2023-03-16T00:10:57.294Z,0.88
2023-03-16T00:13:25.000Z,1.00
2023-03-16T00:15:54.245Z,1.13
2023-03-16T00:18:22.447Z,1.52
2023-03-16T00:20:53.672Z,1.30
2023-03-16T00:23:20.125Z,1.10
2023-03-16T00:25:46.650Z,1.50
2023-03-16T00:28:13.955Z,1.17
2023-03-16T00:30:40.764Z,1.17
2023-03-16T00:33:07.267Z,1.43
2023-03-16T00:35:34.916Z,1.25
2023-03-16T00:38:01.478Z,1.80
2023-03-16T00:40:28.144Z,1.17
2023-03-16T00:42:55.088Z,1.55
2023-03-16T00:45:21.650Z,1.37
2023-03-16T00:47:48.173Z,1.25
2023-03-16T00:50:15.648Z,1.48
2023-03-16T00:52:42.341Z,1.45
2023-03-16T00:55:09.580Z,1.52
2023-03-16T00:57:36.083Z,1.57
2023-03-16T01:00:12.636Z,1.60
2023-03-16T01:02:39.149Z,1.38
2023-03-16T01:05:06.303Z,1.58
2023-03-16T01:07:32.702Z,2.15
2023-03-16T01:09:59.159Z,1.20
2023-03-16T01:12:25.611Z,1.55
2023-03-16T01:14:52.359Z,1.88
2023-03-16T01:17:19.050Z,2.15
2023-03-16T01:19:46.653Z,1.80
2023-03-16T01:22:13.695Z,1.87
2023-03-16T01:24:41.076Z,2.03
2023-03-16T01:27:08.941Z,1.75
2023-03-16T01:29:35.533Z,1.70
2023-03-16T01:32:04.212Z,1.83
2023-03-16T01:34:31.982Z,2.00
2023-03-16T01:36:58.915Z,2.13
2023-03-16T01:39:25.534Z,1.60
2023-03-16T01:41:52.031Z,1.85
2023-03-16T01:44:23.021Z,2.00
2023-03-16T01:46:49.992Z,2.00
2023-03-16T01:49:30.334Z,2.50
2023-03-16T01:52:05.500Z,2.10
2023-03-16T01:54:40.897Z,2.10
2023-03-16T01:57:17.722Z,2.30
2023-03-16T01:59:56.752Z,2.10
2023-03-16T02:02:27.337Z,2.03
2023-03-16T02:05:17.199Z,2.00
2023-03-16T02:07:47.862Z,1.48
2023-03-16T02:10:16.910Z,1.70
2023-03-16T02:12:44.114Z,1.63
2023-03-16T02:15:13.437Z,2.38
2023-03-16T02:17:43.004Z,1.85
2023-03-16T02:20:24.560Z,1.88
2023-03-16T02:22:55.411Z,1.77
2023-03-16T02:25:35.474Z,1.80
2023-03-16T02:28:23.705Z,1.95
2023-03-16T02:30:51.258Z,2.00
2023-03-16T02:33:19.490Z,1.70
2023-03-16T02:35:46.020Z,2.13
2023-03-16T02:38:12.567Z,2.10
2023-03-16T02:40:39.258Z,2.05
2023-03-16T02:43:20.641Z,2.17
2023-03-16T02:45:59.512Z,1.77
2023-03-16T02:48:33.617Z,1.63
2023-03-16T02:51:00.120Z,1.70
2023-03-16T02:53:26.547Z,1.92
2023-03-16T02:55:53.198Z,1.83
2023-03-16T02:58:19.776Z,2.05
2023-03-16T03:00:46.450Z,1.90
2023-03-16T03:03:14.128Z,1.83
2023-03-16T03:05:40.876Z,2.05
2023-03-16T03:08:07.589Z,2.58
2023-03-16T03:10:34.053Z,2.13
2023-03-16T03:13:00.784Z,1.67
2023-03-16T03:15:27.429Z,2.20
2023-03-16T03:17:53.983Z,1.60
2023-03-16T03:20:21.592Z,2.50
2023-03-16T03:22:50.135Z,1.88
2023-03-16T03:25:18.277Z,2.40
2023-03-16T03:27:46.553Z,2.00
2023-03-16T03:30:16.446Z,2.05
2023-03-16T03:32:44.149Z,2.40
2023-03-16T03:35:12.605Z,2.13
2023-03-16T03:37:44.239Z,2.22
2023-03-16T03:40:13.356Z,2.13
2023-03-16T03:42:41.002Z,1.80
2023-03-16T03:45:08.529Z,1.65
2023-03-16T03:47:34.995Z,1.50
2023-03-16T03:50:01.598Z,1.80
2023-03-16T03:52:29.038Z,2.20
2023-03-16T03:54:55.518Z,2.17
2023-03-16T03:57:22.077Z,2.13
2023-03-16T03:59:48.583Z,2.35
2023-03-16T04:02:15.622Z,2.45
2023-03-16T04:04:44.342Z,1.87
2023-03-16T04:07:11.277Z,1.60
2023-03-16T04:09:37.764Z,2.10
2023-03-16T04:12:05.969Z,2.15
2023-03-16T04:14:33.049Z,2.03
2023-03-16T04:16:59.691Z,2.40
2023-03-16T04:19:26.406Z,1.88
2023-03-16T04:21:53.328Z,2.42
2023-03-16T04:24:19.950Z,2.13
2023-03-16T04:26:46.539Z,2.05
2023-03-16T04:29:14.513Z,2.13
2023-03-16T04:31:42.419Z,2.47
2023-03-16T04:34:09.530Z,2.22
2023-03-16T04:36:36.257Z,2.40
2023-03-16T04:39:04.641Z,2.20
2023-03-16T04:41:31.912Z,1.90
2023-03-16T04:43:58.938Z,1.88
2023-03-16T04:46:26.829Z,2.08
2023-03-16T04:48:53.828Z,2.25
2023-03-16T04:51:21.563Z,2.58
2023-03-16T04:53:48.089Z,1.90
2023-03-16T04:56:19.803Z,2.20
2023-03-16T04:58:47.990Z,2.13
2023-03-16T05:01:15.363Z,1.80
2023-03-16T05:03:42.824Z,1.85
2023-03-16T05:06:10.171Z,2.27
2023-03-16T05:08:36.798Z,1.67
2023-03-16T05:11:03.342Z,2.90
2023-03-16T05:13:29.823Z,1.33
2023-03-16T05:15:56.383Z,1.50
2023-03-16T05:18:23.372Z,1.83
2023-03-16T05:20:51.764Z,1.70
2023-03-16T05:23:18.215Z,2.28
2023-03-16T05:25:47.246Z,1.83
2023-03-16T05:28:14.959Z,1.70
2023-03-16T05:30:42.434Z,1.80
2023-03-16T05:33:09.463Z,1.25
2023-03-16T05:35:36.470Z,1.60
2023-03-16T05:38:03.121Z,1.85
2023-03-16T05:40:29.997Z,1.60
2023-03-16T05:42:57.600Z,1.23
2023-03-16T05:45:24.485Z,1.40
2023-03-16T05:47:50.914Z,1.80
2023-03-16T05:50:17.605Z,1.70
2023-03-16T05:52:45.424Z,1.60
2023-03-16T05:55:14.574Z,1.77
2023-03-16T05:57:42.056Z,1.55
2023-03-16T06:00:15.647Z,1.35
2023-03-16T06:02:43.233Z,1.98
2023-03-16T06:05:11.223Z,1.98
2023-03-16T06:07:37.850Z,2.17
2023-03-16T06:10:05.313Z,1.50
2023-03-16T06:12:32.517Z,1.60
2023-03-16T06:14:59.039Z,1.95
2023-03-16T06:17:25.623Z,1.65
2023-03-16T06:19:52.120Z,1.40
2023-03-16T06:22:18.796Z,2.38
2023-03-16T06:24:45.294Z,1.45
2023-03-16T06:27:12.395Z,1.55
2023-03-16T06:29:38.858Z,1.60
2023-03-16T06:32:05.484Z,1.33
2023-03-16T06:34:38.337Z,1.50
2023-03-16T06:37:05.156Z,1.40
2023-03-16T06:39:31.767Z,1.10
2023-03-16T06:41:58.599Z,1.20
2023-03-16T06:44:25.194Z,1.17
2023-03-16T06:46:51.668Z,1.42
2023-03-16T06:49:18.181Z,1.65
2023-03-16T06:51:44.681Z,1.20
2023-03-16T06:54:11.773Z,1.13
2023-03-16T06:56:38.417Z,1.30
2023-03-16T06:59:04.857Z,0.90
2023-03-16T07:01:31.822Z,1.02
2023-03-16T07:03:58.478Z,0.85
2023-03-16T07:06:25.097Z,0.80
2023-03-16T07:08:51.593Z,1.00
2023-03-16T07:11:18.272Z,1.17
2023-03-16T07:13:44.849Z,1.30
2023-03-16T07:16:11.454Z,1.30
2023-03-16T07:18:39.810Z,1.15
2023-03-16T07:21:06.486Z,0.83
2023-03-16T07:23:32.993Z,1.00
2023-03-16T07:25:59.550Z,1.27
2023-03-16T07:28:27.940Z,1.00
2023-03-16T07:31:03.449Z,1.38
2023-03-16T07:33:34.754Z,0.70
2023-03-16T07:36:05.728Z,1.38
2023-03-16T07:38:33.596Z,1.33
2023-03-16T07:41:01.094Z,1.10
2023-03-16T07:43:27.722Z,1.30
2023-03-16T07:45:54.332Z,1.10
2023-03-16T07:48:20.926Z,1.50
2023-03-16T07:50:48.724Z,0.95
2023-03-16T07:53:17.965Z,1.27
2023-03-16T07:55:44.783Z,1.30
2023-03-16T07:58:12.319Z,1.53
2023-03-16T08:00:39.503Z,1.58
2023-03-16T08:03:06.985Z,1.45
2023-03-16T08:05:33.945Z,1.50
2023-03-16T08:08:04.009Z,1.27
2023-03-16T08:10:31.875Z,1.40
2023-03-16T08:13:04.673Z,1.80
2023-03-16T08:15:33.915Z,1.58
2023-03-16T08:18:04.381Z,1.13
2023-03-16T08:20:31.314Z,1.33
2023-03-16T08:22:57.915Z,1.00
2023-03-16T08:25:24.471Z,1.35
2023-03-16T08:27:51.135Z,1.33
2023-03-16T08:30:18.984Z,1.00
2023-03-16T08:32:45.538Z,1.27
2023-03-16T08:35:14.312Z,1.17
2023-03-16T08:37:42.044Z,1.70
2023-03-16T08:40:13.343Z,1.55
2023-03-16T08:42:40.381Z,1.42
2023-03-16T08:45:12.256Z,1.27
2023-03-16T08:47:40.489Z,1.27
2023-03-16T08:50:09.068Z,1.90
2023-03-16T08:52:36.739Z,1.70
2023-03-16T08:55:07.256Z,1.42
2023-03-16T08:57:34.119Z,1.15
2023-03-16T09:00:01.458Z,1.70
2023-03-16T09:02:28.076Z,1.30
2023-03-16T09:04:54.773Z,1.15
2023-03-16T09:07:21.954Z,1.52
2023-03-16T09:09:48.486Z,1.20
2023-03-16T09:12:15.225Z,1.37
2023-03-16T09:14:41.692Z,1.88
2023-03-16T09:17:08.102Z,1.05
2023-03-16T09:19:50.176Z,1.30
2023-03-16T09:22:19.679Z,1.50
2023-03-16T09:24:46.535Z,1.20
2023-03-16T09:27:13.082Z,1.27
2023-03-16T09:29:41.025Z,1.60
2023-03-16T09:32:08.615Z,1.48
2023-03-16T09:34:35.025Z,0.80
2023-03-16T09:37:01.545Z,1.37
2023-03-16T09:39:28.204Z,1.23
2023-03-16T09:42:14.854Z,1.15
2023-03-16T09:45:09.156Z,1.15
2023-03-16T09:47:38.584Z,1.50
2023-03-16T09:50:14.695Z,1.20
2023-03-16T09:52:57.618Z,1.08
2023-03-16T09:55:33.224Z,1.05
2023-03-16T09:58:01.300Z,1.20
2023-03-16T10:00:33.970Z,1.10
2023-03-16T10:03:22.212Z,1.50
2023-03-16T10:05:57.316Z,1.17
2023-03-16T10:08:28.565Z,1.35
2023-03-16T10:11:10.612Z,1.00
2023-03-16T10:13:46.608Z,1.20
2023-03-16T10:16:19.940Z,1.20
2023-03-16T10:18:49.378Z,1.10
2023-03-16T10:21:18.322Z,1.25
2023-03-16T10:23:47.047Z,1.20
2023-03-16T10:26:23.026Z,1.73
2023-03-16T10:28:49.602Z,1.17
2023-03-16T10:31:18.627Z,1.08
2023-03-16T10:33:45.641Z,0.88
2023-03-16T10:36:36.564Z,1.10
2023-03-16T10:39:07.363Z,1.77
2023-03-16T10:41:37.185Z,0.80
2023-03-16T10:44:10.169Z,1.23
2023-03-16T10:46:41.794Z,1.15
2023-03-16T10:49:39.460Z,1.27
2023-03-16T10:52:44.093Z,1.15
2023-03-16T10:55:24.723Z,1.00
2023-03-16T10:57:55.123Z,1.10
2023-03-16T11:00:26.595Z,0.88
2023-03-16T11:02:55.268Z,0.90
2023-03-16T11:05:32.344Z,1.55
2023-03-16T11:07:58.714Z,0.73
2023-03-16T11:10:25.546Z,1.17
2023-03-16T11:12:52.492Z,1.08
2023-03-16T11:15:29.393Z,1.52
2023-03-16T11:17:56.603Z,0.88
2023-03-16T11:20:33.526Z,0.87
2023-03-16T11:23:01.474Z,1.08
2023-03-16T11:25:43.216Z,0.90
2023-03-16T11:28:17.706Z,0.65
2023-03-16T11:30:59.156Z,1.33
2023-03-16T11:33:27.121Z,0.70
2023-03-16T11:36:28.068Z,1.35
2023-03-16T11:39:16.024Z,1.35
2023-03-16T11:41:51.792Z,0.93
2023-03-16T11:44:32.779Z,0.88
2023-03-16T11:47:07.986Z,0.93
2023-03-16T11:49:44.366Z,1.00
2023-03-16T11:52:28.985Z,0.73
2023-03-16T11:55:03.365Z,0.95
2023-03-16T11:58:01.189Z,0.95
2023-03-16T12:00:38.469Z,0.75
2023-03-16T12:03:25.762Z,0.80
2023-03-16T12:06:20.734Z,0.98
2023-03-16T12:09:33.869Z,0.65
2023-03-16T12:12:11.490Z,0.57
2023-03-16T12:14:44.155Z,0.57
2023-03-16T12:17:17.890Z,1.00
2023-03-16T12:20:04.147Z,1.02
2023-03-16T12:22:38.684Z,1.10
2023-03-16T12:25:16.209Z,1.25
2023-03-16T12:27:45.278Z,0.77
2023-03-16T12:30:36.244Z,0.57
2023-03-16T12:33:20.860Z,0.77
2023-03-16T12:36:30.674Z,0.77
2023-03-16T12:39:05.187Z,0.60
2023-03-16T12:41:49.019Z,0.63
2023-03-16T12:44:22.198Z,0.60
2023-03-16T12:47:09.591Z,0.40
2023-03-16T12:49:37.094Z,0.50
2023-03-16T12:52:11.459Z,0.40
2023-03-16T12:54:51.654Z,0.50
2023-03-16T12:57:19.615Z,0.73
2023-03-16T12:59:50.020Z,0.50
2023-03-16T13:02:26.825Z,0.80
2023-03-16T13:05:01.061Z,0.40
2023-03-16T13:07:31.123Z,0.45
2023-03-16T13:10:02.681Z,0.50
2023-03-16T13:12:37.140Z,0.50
2023-03-16T13:15:19.406Z,0.82
2023-03-16T13:17:48.110Z,0.50
2023-03-16T13:20:29.302Z,0.40
2023-03-16T13:23:18.558Z,0.23
2023-03-16T13:26:04.654Z,0.40
2023-03-16T13:28:35.292Z,0.30
2023-03-16T13:31:02.706Z,0.50
2023-03-16T13:33:37.315Z,0.40
2023-03-16T13:36:06.272Z,0.47
2023-03-16T13:38:32.783Z,0.40
2023-03-16T13:41:09.345Z,0.40
2023-03-16T13:43:39.547Z,0.50
2023-03-16T13:46:17.065Z,0.55
2023-03-16T13:48:44.011Z,0.40
2023-03-16T13:51:21.068Z,0.43
2023-03-16T13:53:49.367Z,0.30
2023-03-16T13:56:21.158Z,0.30
2023-03-16T13:58:51.609Z,0.40
2023-03-16T14:01:28.847Z,0.47
2023-03-16T14:03:58.359Z,0.40
2023-03-16T14:06:27.697Z,0.30
2023-03-16T14:09:01.186Z,0.30
2023-03-16T14:11:28.453Z,0.45
2023-03-16T14:13:57.491Z,0.50
2023-03-16T14:16:28.040Z,0.30
2023-03-16T14:19:16.955Z,0.40
2023-03-16T14:21:45.972Z,0.40
2023-03-16T14:24:30.759Z,0.30
2023-03-16T14:26:58.344Z,0.40
2023-03-16T14:29:30.589Z,0.40
2023-03-16T14:31:59.820Z,0.28
2023-03-16T14:34:35.148Z,0.30
2023-03-16T14:37:06.774Z,0.30
2023-03-16T14:39:33.820Z,0.30
2023-03-16T14:42:04.809Z,0.63
2023-03-16T14:44:35.400Z,0.30
2023-03-16T14:47:04.987Z,0.20
2023-03-16T14:49:35.002Z,0.30
2023-03-16T14:52:08.274Z,0.33
2023-03-16T14:54:34.837Z,0.20
2023-03-16T14:57:05.372Z,0.40
2023-03-16T14:59:32.988Z,0.20
2023-03-16T15:02:01.202Z,0.40
2023-03-16T15:04:33.554Z,0.30
2023-03-16T15:07:01.634Z,0.28
2023-03-16T15:09:39.973Z,0.22
2023-03-16T15:12:18.115Z,0.30
2023-03-16T15:15:03.580Z,0.20
2023-03-16T15:17:30.418Z,0.20
2023-03-16T15:19:57.015Z,0.22
2023-03-16T15:22:28.658Z,0.20
2023-03-16T15:24:57.551Z,0.30
2023-03-16T15:27:27.904Z,0.50
2023-03-16T15:29:54.601Z,0.27
2023-03-16T15:32:21.123Z,0.40
2023-03-16T15:34:47.840Z,0.20
2023-03-16T15:37:16.114Z,0.20
2023-03-16T15:39:43.625Z,0.43
2023-03-16T15:42:16.006Z,0.30
2023-03-16T15:44:42.960Z,0.30
2023-03-16T15:47:09.569Z,0.43
2023-03-16T15:49:46.724Z,0.40
2023-03-16T15:52:31.995Z,0.25
2023-03-16T15:55:03.396Z,0.30
2023-03-16T15:57:31.539Z,0.20
2023-03-16T15:59:59.278Z,0.20
2023-03-16T16:02:31.930Z,0.20
2023-03-16T16:04:59.593Z,0.20
2023-03-16T16:07:27.152Z,0.30
2023-03-16T16:09:54.013Z,0.17
2023-03-16T16:12:26.689Z,0.30
2023-03-16T16:14:54.051Z,0.40
2023-03-16T16:17:36.426Z,0.20
2023-03-16T16:20:23.827Z,0.30
2023-03-16T16:22:51.982Z,0.30
2023-03-16T16:25:20.527Z,0.30
2023-03-16T16:27:47.357Z,0.20
2023-03-16T16:30:26.198Z,0.28
2023-03-16T16:32:53.530Z,0.30
2023-03-16T16:35:22.611Z,0.30
2023-03-16T16:37:50.065Z,0.10
2023-03-16T16:40:25.727Z,0.20
2023-03-16T16:42:53.812Z,0.30
2023-03-16T16:45:23.294Z,0.10
2023-03-16T16:47:52.269Z,0.47
2023-03-16T16:50:21.502Z,0.25
2023-03-16T16:52:49.798Z,0.40
2023-03-16T16:55:16.502Z,0.55
2023-03-16T16:57:43.957Z,0.93
2023-03-16T17:00:18.494Z,0.40
2023-03-16T17:02:53.629Z,0.30
2023-03-16T17:05:25.732Z,0.40
2023-03-16T17:07:53.602Z,0.40
2023-03-16T17:10:23.671Z,0.40
2023-03-16T17:12:52.110Z,0.30
2023-03-16T17:15:32.914Z,0.30
2023-03-16T17:18:03.699Z,0.30
2023-03-16T17:20:31.126Z,0.40
2023-03-16T17:22:58.771Z,0.30
2023-03-16T17:25:26.338Z,0.40
2023-03-16T17:27:56.412Z,0.40
2023-03-16T17:30:32.212Z,0.30
2023-03-16T17:33:13.787Z,0.30
2023-03-16T17:35:41.545Z,0.30
2023-03-16T17:38:20.433Z,0.20
2023-03-16T17:40:47.370Z,0.28
2023-03-16T17:43:16.333Z,0.20
2023-03-16T17:45:44.614Z,0.50
2023-03-16T17:48:14.572Z,0.68
2023-03-16T17:50:41.511Z,0.30
2023-03-16T17:53:08.174Z,0.20
2023-03-16T17:55:35.056Z,0.30
2023-03-16T17:58:02.192Z,0.20
2023-03-16T18:00:35.777Z,0.30
2023-03-16T18:03:13.785Z,0.50
2023-03-16T18:05:41.190Z,0.30
2023-03-16T18:08:16.191Z,0.30
2023-03-16T18:10:45.467Z,0.40
2023-03-16T18:13:24.748Z,0.43
2023-03-16T18:15:51.930Z,0.40
2023-03-16T18:18:22.286Z,0.50
2023-03-16T18:20:54.978Z,0.55
2023-03-16T18:23:23.997Z,0.55
2023-03-16T18:25:52.656Z,0.60
2023-03-16T18:28:20.518Z,0.77
2023-03-16T18:30:51.983Z,0.50
2023-03-16T18:33:43.866Z,0.82
2023-03-16T18:36:17.752Z,0.45
2023-03-16T18:38:47.284Z,0.60
2023-03-16T18:41:19.853Z,0.55
2023-03-16T18:43:47.350Z,0.75
2023-03-16T18:46:32.491Z,0.60
2023-03-16T18:49:02.184Z,0.77
2023-03-16T18:51:29.687Z,0.73
2023-03-16T18:53:56.655Z,0.80
2023-03-16T18:56:28.442Z,1.00
2023-03-16T18:58:56.412Z,0.50
2023-03-16T19:01:29.630Z,0.70
2023-03-16T19:03:57.862Z,0.70
2023-03-16T19:06:33.713Z,0.73
2023-03-16T19:09:10.898Z,0.60
2023-03-16T19:11:42.654Z,0.65
2023-03-16T19:14:17.651Z,0.50
2023-03-16T19:16:45.273Z,0.40
2023-03-16T19:19:12.410Z,0.32
2023-03-16T19:21:39.740Z,0.40
2023-03-16T19:24:08.293Z,0.30
2023-03-16T19:26:37.540Z,0.38
2023-03-16T19:29:05.968Z,0.40
2023-03-16T19:31:33.505Z,0.38
2023-03-16T19:34:00.272Z,0.40
2023-03-16T19:36:33.882Z,0.50
2023-03-16T19:39:00.752Z,0.30
2023-03-16T19:41:37.079Z,0.40
2023-03-16T19:44:25.372Z,0.38
2023-03-16T19:46:52.318Z,0.30
2023-03-16T19:49:27.082Z,0.30
2023-03-16T19:51:55.267Z,0.40
2023-03-16T19:54:23.053Z,0.77
2023-03-16T19:56:50.507Z,0.40
2023-03-16T19:59:17.513Z,0.40
2023-03-16T20:01:44.744Z,0.40
2023-03-16T20:04:23.479Z,0.70
2023-03-16T20:06:50.925Z,0.35
2023-03-16T20:09:18.309Z,0.70
2023-03-16T20:11:45.936Z,0.20
2023-03-16T20:14:30.712Z,0.30
2023-03-16T20:16:57.774Z,0.50
2023-03-16T20:19:24.590Z,0.40
2023-03-16T20:21:51.925Z,0.52
2023-03-16T20:24:20.866Z,0.75
2023-03-16T20:26:51.318Z,0.43
2023-03-16T20:29:29.202Z,0.40
2023-03-16T20:31:56.082Z,0.38
2023-03-16T20:34:26.517Z,0.40
2023-03-16T20:36:53.408Z,0.35
2023-03-16T20:39:19.942Z,0.50
2023-03-16T20:41:46.549Z,0.40
2023-03-16T20:44:18.098Z,0.30
2023-03-16T20:46:45.170Z,0.40
2023-03-16T20:49:28.687Z,0.25
2023-03-16T20:51:55.453Z,0.70
2023-03-16T20:54:21.893Z,0.43
2023-03-16T20:56:49.131Z,0.52
2023-03-16T20:59:31.548Z,0.30
2023-03-16T21:01:58.448Z,0.40
2023-03-16T21:04:27.911Z,0.40
2023-03-16T21:06:55.858Z,0.30
2023-03-16T21:09:22.629Z,0.60
2023-03-16T21:11:49.574Z,0.40
2023-03-16T21:14:23.958Z,0.43
2023-03-16T21:16:51.457Z,0.35
2023-03-16T21:19:21.514Z,0.30
2023-03-16T21:21:48.868Z,0.30
2023-03-16T21:24:15.402Z,0.30
2023-03-16T21:26:42.830Z,0.70
2023-03-16T21:29:23.701Z,0.50
2023-03-16T21:31:50.309Z,0.47
2023-03-16T21:34:24.173Z,0.30
2023-03-16T21:36:50.866Z,0.30
2023-03-16T21:39:23.660Z,0.38
2023-03-16T21:41:50.747Z,0.38
2023-03-16T21:44:17.372Z,1.00
2023-03-16T21:46:44.580Z,0.75
2023-03-16T21:49:12.094Z,0.22
2023-03-16T21:51:42.831Z,0.60
2023-03-16T21:54:13.552Z,0.65
2023-03-16T21:56:41.887Z,0.60
2023-03-16T21:59:08.640Z,0.30
2023-03-16T22:01:44.858Z,0.30
2023-03-16T22:04:17.779Z,0.50
2023-03-16T22:06:45.890Z,0.40
2023-03-16T22:09:21.002Z,0.40
2023-03-16T22:11:47.485Z,0.40
2023-03-16T22:14:13.986Z,0.38
2023-03-16T22:16:41.256Z,0.50
2023-03-16T22:19:13.460Z,0.50
2023-03-16T22:21:42.628Z,0.40
2023-03-16T22:24:30.331Z,0.30
2023-03-16T22:26:57.941Z,0.30
2023-03-16T22:29:28.215Z,0.45
2023-03-16T22:32:03.029Z,0.43
2023-03-16T22:34:43.755Z,0.40
2023-03-16T22:37:13.193Z,0.65
2023-03-16T22:39:40.590Z,0.65
2023-03-16T22:42:19.187Z,0.40
2023-03-16T22:44:45.762Z,0.45
2023-03-16T22:47:24.117Z,0.40
2023-03-16T22:49:50.672Z,0.40
2023-03-16T22:52:17.860Z,0.35
2023-03-16T22:54:46.368Z,0.60
2023-03-16T22:57:15.508Z,0.52
2023-03-16T22:59:43.393Z,1.07
2023-03-16T23:02:19.067Z,0.30
2023-03-16T23:04:45.764Z,0.82
2023-03-16T23:07:16.766Z,0.60
2023-03-16T23:09:43.146Z,0.60
2023-03-16T23:12:15.444Z,0.70
2023-03-16T23:14:42.253Z,0.65
2023-03-16T23:17:26.976Z,0.40
2023-03-16T23:19:54.200Z,0.70
2023-03-16T23:22:20.610Z,0.50
2023-03-16T23:24:47.302Z,0.57
2023-03-16T23:27:21.339Z,0.40
2023-03-16T23:29:48.493Z,0.38
2023-03-16T23:32:17.108Z,0.60
2023-03-16T23:34:43.762Z,0.40
2023-03-16T23:37:10.293Z,0.50
2023-03-16T23:39:36.915Z,0.55
2023-03-16T23:42:04.126Z,0.90
2023-03-16T23:44:31.196Z,0.60
2023-03-16T23:46:59.805Z,0.77
2023-03-16T23:49:31.127Z,0.60
2023-03-16T23:52:02.751Z,0.40
2023-03-16T23:54:31.797Z,0.60
2023-03-16T23:56:58.732Z,0.68
2023-03-16T23:59:26.567Z,0.52
